createdAt,value
2018-06-20T00:01:18.817Z,101240.73
2018-06-20T00:03:47.871Z,101241.84
2018-06-20T00:06:16.309Z,101241.30
2018-06-20T00:08:53.317Z,101238.61
2018-06-20T00:11:25.237Z,101234.38
2018-06-20T00:13:58.875Z,101234.16
2018-06-20T00:16:27.371Z,101228.23
2018-06-20T00:19:07.279Z,101231.55
2018-06-20T00:21:35.829Z,101236.69
2018-06-20T00:24:05.410Z,101232.97
2018-06-20T00:26:34.243Z,101234.23
2018-06-20T00:29:03.373Z,101229.98
2018-06-20T00:31:31.865Z,101235.61
2018-06-20T00:34:01.151Z,101232.03
2018-06-20T00:36:29.653Z,101237.66
2018-06-20T00:39:03.680Z,101230.02
2018-06-20T00:41:32.457Z,101230.80
2018-06-20T00:44:01.217Z,101230.23
2018-06-20T00:46:30.096Z,101232.32
2018-06-20T00:48:58.586Z,101238.31
2018-06-20T00:51:30.463Z,101229.71
2018-06-20T00:53:58.959Z,101222.94
2018-06-20T00:56:29.054Z,101226.24
2018-06-20T00:58:57.904Z,101218.92
2018-06-20T01:04:06.804Z,101226.76
2018-06-20T01:09:11.606Z,101214.17
2018-06-20T01:11:40.665Z,101217.11
2018-06-20T01:14:09.151Z,101220.08
2018-06-20T01:16:37.717Z,101218.17
2018-06-20T01:19:06.294Z,101218.28
2018-06-20T01:21:34.784Z,101218.09
2018-06-20T01:24:09.556Z,101216.13
2018-06-20T01:26:38.338Z,101208.58
2018-06-20T01:29:06.879Z,101206.16
2018-06-20T01:31:35.402Z,101211.42
2018-06-20T01:34:06.001Z,101207.70
2018-06-20T01:36:34.850Z,101217.55
2018-06-20T01:39:03.678Z,101208.09
2018-06-20T01:41:32.342Z,101211.73
2018-06-20T01:44:00.894Z,101203.84
2018-06-20T01:46:29.412Z,101208.97
2018-06-20T01:49:04.706Z,101203.05
2018-06-20T01:51:33.189Z,101202.48
2018-06-20T01:54:02.140Z,101206.41
2018-06-20T01:56:33.169Z,101203.98
2018-06-20T01:59:01.750Z,101197.06
2018-06-20T02:01:30.263Z,101198.17
2018-06-20T02:04:00.146Z,101206.70
2018-06-20T02:06:28.633Z,101200.64
2018-06-20T02:08:58.202Z,101207.95
2018-06-20T02:11:28.570Z,101212.55
2018-06-20T02:13:57.198Z,101205.67
2018-06-20T02:16:31.854Z,101205.41
2018-06-20T02:19:00.961Z,101202.64
2018-06-20T02:21:29.478Z,101201.07
2018-06-20T02:23:57.983Z,101203.40
2018-06-20T02:26:26.968Z,101204.36
2018-06-20T02:28:55.505Z,101200.49
2018-06-20T02:31:24.038Z,101199.55
2018-06-20T02:33:52.903Z,101193.73
2018-06-20T02:36:38.782Z,101196.06
2018-06-20T02:39:09.058Z,101197.02
2018-06-20T02:41:38.130Z,101197.78
2018-06-20T02:44:06.779Z,101194.39
2018-06-20T02:46:41.763Z,101188.81
2018-06-20T02:49:10.239Z,101194.30
2018-06-20T02:51:39.846Z,101196.26
2018-06-20T02:54:08.335Z,101195.54
2018-06-20T02:56:37.216Z,101189.10
2018-06-20T02:59:05.747Z,101189.58
2018-06-20T03:01:34.480Z,101188.39
2018-06-20T03:04:08.302Z,101187.19
2018-06-20T03:06:36.772Z,101186.61
2018-06-20T03:09:13.244Z,101186.23
2018-06-20T03:14:16.148Z,101178.88
2018-06-20T03:16:44.605Z,101184.33
2018-06-20T03:19:13.551Z,101179.59
2018-06-20T03:21:42.338Z,101186.89
2018-06-20T03:24:10.819Z,101181.34
2018-06-20T03:26:39.367Z,101178.44
2018-06-20T03:29:07.899Z,101174.05
2018-06-20T03:31:36.886Z,101175.05
2018-06-20T03:34:06.282Z,101172.37
2018-06-20T03:36:34.762Z,101180.73
2018-06-20T03:39:03.455Z,101176.38
2018-06-20T03:41:32.308Z,101172.00
2018-06-20T03:44:00.853Z,101172.37
2018-06-20T03:46:29.654Z,101173.71
2018-06-20T03:48:58.582Z,101172.72
2018-06-20T03:51:27.092Z,101173.23
2018-06-20T03:53:55.956Z,101170.05
2018-06-20T03:56:24.784Z,101172.10
2018-06-20T03:58:53.527Z,101167.99
2018-06-20T04:01:22.501Z,101174.16
2018-06-20T04:03:51.833Z,101167.86
2018-06-20T04:06:20.332Z,101173.54
2018-06-20T04:08:54.167Z,101166.62
2018-06-20T04:11:23.042Z,101172.81
2018-06-20T04:13:51.599Z,101168.67
2018-06-20T04:16:20.512Z,101165.86
2018-06-20T04:18:49.483Z,101167.67
2018-06-20T04:21:18.287Z,101164.52
2018-06-20T04:23:47.318Z,101169.25
2018-06-20T04:26:15.847Z,101169.97
2018-06-20T04:28:44.379Z,101157.73
2018-06-20T04:31:17.501Z,101157.70
2018-06-20T04:33:45.992Z,101161.42
2018-06-20T04:36:14.535Z,101157.31
2018-06-20T04:38:46.882Z,101157.89
2018-06-20T04:41:19.512Z,101152.30
2018-06-20T04:43:48.194Z,101158.31
2018-06-20T04:46:17.134Z,101155.11
2018-06-20T04:48:45.624Z,101155.44
2018-06-20T04:51:19.132Z,101148.84
2018-06-20T04:53:48.879Z,101150.50
2018-06-20T04:56:17.375Z,101150.00
2018-06-20T04:58:46.307Z,101153.47
2018-06-20T05:01:15.233Z,101157.31
2018-06-20T05:03:43.722Z,101157.11
2018-06-20T05:06:12.258Z,101149.55
2018-06-20T05:08:42.303Z,101150.11
2018-06-20T05:11:14.675Z,101143.39
2018-06-20T05:13:43.230Z,101154.97
2018-06-20T05:16:12.027Z,101152.23
2018-06-20T05:18:43.232Z,101152.87
2018-06-20T05:21:11.999Z,101151.50
2018-06-20T05:23:40.578Z,101149.31
2018-06-20T05:26:14.082Z,101153.66
2018-06-20T05:28:43.196Z,101152.61
2018-06-20T05:31:11.740Z,101153.40
2018-06-20T05:33:40.263Z,101148.70
2018-06-20T05:36:09.619Z,101151.86
2018-06-20T05:38:38.176Z,101150.66
2018-06-20T05:41:07.160Z,101151.46
2018-06-20T05:43:36.001Z,101146.02
2018-06-20T05:46:07.262Z,101145.81
2018-06-20T05:48:35.769Z,101142.27
2018-06-20T05:51:05.498Z,101149.48
2018-06-20T05:53:38.735Z,101146.56
2018-06-20T05:56:07.310Z,101150.59
2018-06-20T05:58:46.562Z,101152.05
2018-06-20T06:01:15.764Z,101148.20
2018-06-20T06:03:55.046Z,101147.77
2018-06-20T06:06:36.192Z,101149.58
2018-06-20T06:09:06.636Z,101153.22
2018-06-20T06:11:35.490Z,101158.03
2018-06-20T06:14:05.307Z,101157.07
2018-06-20T06:16:33.875Z,101149.92
2018-06-20T06:19:03.110Z,101149.00
2018-06-20T06:21:35.562Z,101147.21
2018-06-20T06:24:05.957Z,101144.42
2018-06-20T06:26:43.526Z,101144.36
2018-06-20T06:29:13.106Z,101148.14
2018-06-20T06:31:42.031Z,101143.17
2018-06-20T06:34:12.876Z,101142.05
2018-06-20T06:36:41.742Z,101140.12
2018-06-20T06:39:12.068Z,101141.80
2018-06-20T06:41:40.928Z,101140.82
2018-06-20T06:44:09.918Z,101141.96
2018-06-20T06:46:39.820Z,101139.27
2018-06-20T06:49:08.425Z,101132.65
2018-06-20T06:51:36.932Z,101137.98
2018-06-20T06:54:05.980Z,101134.52
2018-06-20T06:56:34.595Z,101131.50
2018-06-20T06:59:04.019Z,101128.13
2018-06-20T07:01:32.762Z,101128.82
2018-06-20T07:04:03.441Z,101135.25
2018-06-20T07:06:37.298Z,101135.20
2018-06-20T07:09:07.941Z,101130.64
2018-06-20T07:11:36.446Z,101117.59
2018-06-20T07:14:06.449Z,101128.49
2018-06-20T07:16:34.938Z,101122.19
2018-06-20T07:19:03.498Z,101125.70
2018-06-20T07:21:32.034Z,101130.95
2018-06-20T07:24:02.713Z,101119.55
2018-06-20T07:26:31.709Z,101122.97
2018-06-20T07:29:01.412Z,101120.28
2018-06-20T07:31:29.923Z,101112.47
2018-06-20T07:33:58.920Z,101107.89
2018-06-20T07:36:29.108Z,101105.53
2018-06-20T07:38:57.611Z,101110.38
2018-06-20T07:41:26.421Z,101105.95
2018-06-20T07:43:56.222Z,101099.44
2018-06-20T07:46:24.820Z,101102.09
2018-06-20T07:48:54.184Z,101104.68
2018-06-20T07:51:22.673Z,101098.02
2018-06-20T07:53:51.230Z,101098.78
2018-06-20T07:56:20.134Z,101098.98
2018-06-20T07:58:58.202Z,101090.91
2018-06-20T08:03:48.191Z,101090.81
2018-06-20T08:06:21.983Z,101091.09
2018-06-20T08:08:57.243Z,101082.48
2018-06-20T08:11:31.020Z,101085.01
2018-06-20T08:14:05.733Z,101083.69
2018-06-20T08:16:43.000Z,101077.91
2018-06-20T08:19:17.226Z,101073.82
2018-06-20T08:21:46.101Z,101070.47
2018-06-20T08:24:14.689Z,101065.39
2018-06-20T08:26:44.238Z,101069.62
2018-06-20T08:29:15.159Z,101073.20
2018-06-20T08:31:43.716Z,101070.52
2018-06-20T08:34:12.534Z,101070.16
2018-06-20T08:36:42.689Z,101065.82
2018-06-20T08:39:11.362Z,101071.55
2018-06-20T08:41:40.671Z,101073.77
2018-06-20T08:44:09.450Z,101069.22
2018-06-20T08:46:37.969Z,101064.02
2018-06-20T08:49:11.617Z,101069.75
2018-06-20T08:51:40.398Z,101071.30
2018-06-20T08:54:12.019Z,101065.09
2018-06-20T08:56:40.523Z,101064.95
2018-06-20T08:59:12.468Z,101061.92
2018-06-20T09:01:40.990Z,101067.78
2018-06-20T09:04:14.786Z,101067.64
2018-06-20T09:06:51.843Z,101060.25
2018-06-20T09:09:25.683Z,101059.24
2018-06-20T09:11:59.706Z,101058.94
2018-06-20T09:14:28.261Z,101056.91
2018-06-20T09:17:04.356Z,101050.50
2018-06-20T09:19:38.946Z,101051.55
2018-06-20T09:22:07.807Z,101054.62
2018-06-20T09:24:36.845Z,101050.89
2018-06-20T09:27:05.406Z,101048.20
2018-06-20T09:29:34.189Z,101049.03
2018-06-20T09:32:07.991Z,101054.28
2018-06-20T09:34:36.508Z,101049.09
2018-06-20T09:37:05.374Z,101042.06
2018-06-20T09:39:34.843Z,101045.75
2018-06-20T09:42:04.605Z,101042.28
2018-06-20T09:44:33.458Z,101033.67
2018-06-20T09:47:02.044Z,101036.92
2018-06-20T09:49:30.562Z,101036.50
2018-06-20T09:51:59.436Z,101034.14
2018-06-20T09:54:34.560Z,101032.31
2018-06-20T09:57:03.370Z,101031.50
2018-06-20T09:59:37.595Z,101026.81
2018-06-20T10:02:11.589Z,101028.18
2018-06-20T10:04:45.682Z,101021.64
2018-06-20T10:11:36.866Z,101015.58
2018-06-20T10:14:10.215Z,101023.84
2018-06-20T10:16:39.101Z,101024.02
2018-06-20T10:19:07.604Z,101015.73
2018-06-20T10:21:41.443Z,101015.37
2018-06-20T10:24:09.936Z,101012.21
2018-06-20T10:26:38.437Z,101012.05
2018-06-20T10:29:07.603Z,101007.97
2018-06-20T10:31:37.961Z,101013.84
2018-06-20T10:34:06.602Z,101010.34
2018-06-20T10:36:35.494Z,101001.97
2018-06-20T10:39:05.630Z,101007.83
2018-06-20T10:41:37.287Z,100999.35
2018-06-20T10:46:56.040Z,100993.84
2018-06-20T10:49:25.683Z,100987.11
2018-06-20T10:51:54.342Z,100985.97
2018-06-20T10:54:22.877Z,100977.83
2018-06-20T10:56:56.887Z,100975.23
2018-06-20T10:59:30.723Z,100979.68
2018-06-20T11:02:06.938Z,100977.22
2018-06-20T11:04:40.679Z,100977.22
2018-06-20T11:07:14.877Z,100966.64
2018-06-20T11:09:48.581Z,100968.48
2018-06-20T11:12:22.575Z,100963.38
2018-06-20T11:14:51.109Z,100954.81
2018-06-20T11:17:25.683Z,100950.72
2018-06-20T11:19:54.494Z,100943.27
2018-06-20T11:22:23.021Z,100950.83
2018-06-20T11:24:52.337Z,100941.14
2018-06-20T11:27:21.101Z,100935.88
2018-06-20T11:29:49.802Z,100936.78
2018-06-20T11:35:10.042Z,100927.05
2018-06-20T11:37:38.953Z,100925.58
2018-06-20T11:40:19.345Z,100925.77
2018-06-20T11:42:48.074Z,100920.38
2018-06-20T11:45:19.979Z,100915.34
2018-06-20T11:47:49.027Z,100915.06
2018-06-20T11:50:17.958Z,100906.66
2018-06-20T11:52:51.570Z,100901.19
2018-06-20T11:55:25.200Z,100897.61
2018-06-20T11:58:01.291Z,100901.37
2018-06-20T12:00:35.564Z,100888.58
2018-06-20T12:03:09.628Z,100889.25
2018-06-20T12:05:46.627Z,100879.19
2018-06-20T12:08:25.003Z,100883.77
2018-06-20T12:11:05.194Z,100878.31
2018-06-20T12:13:45.924Z,100870.03
2018-06-20T12:16:23.294Z,100873.91
2018-06-20T12:18:57.836Z,100863.95
2018-06-20T12:21:31.662Z,100862.13
2018-06-20T12:24:05.732Z,100861.61
2018-06-20T12:26:41.802Z,100864.69
2018-06-20T12:29:15.866Z,100859.06
2018-06-20T12:31:50.339Z,100854.61
2018-06-20T12:34:24.198Z,100859.87
2018-06-20T12:36:58.215Z,100854.08
2018-06-20T12:39:25.851Z,100850.19
2018-06-20T12:41:59.575Z,100848.74
2018-06-20T12:44:37.474Z,100846.05
2018-06-20T12:47:16.982Z,100845.23
2018-06-20T12:49:52.976Z,100834.70
2018-06-20T12:52:21.487Z,100827.63
2018-06-20T12:54:53.892Z,100833.77
2018-06-20T12:57:22.735Z,100820.17
2018-06-20T12:59:51.267Z,100818.34
2018-06-20T13:02:19.915Z,100824.14
2018-06-20T13:04:48.948Z,100824.33
2018-06-20T13:07:19.692Z,100817.24
2018-06-20T13:09:48.386Z,100817.66
2018-06-20T13:12:23.599Z,100810.82
2018-06-20T13:14:52.214Z,100817.30
2018-06-20T13:17:20.760Z,100808.70
2018-06-20T13:19:55.494Z,100802.36
2018-06-20T13:22:24.079Z,100800.98
2018-06-20T13:24:53.097Z,100799.96
2018-06-20T13:27:28.728Z,100793.31
2018-06-20T13:30:04.108Z,100790.34
2018-06-20T13:32:41.531Z,100793.77
2018-06-20T13:35:15.310Z,100779.28
2018-06-20T13:37:48.952Z,100782.08
2018-06-20T13:40:22.798Z,100786.64
2018-06-20T13:45:42.607Z,100777.96
2018-06-20T13:48:16.246Z,100778.90
2018-06-20T13:50:44.803Z,100767.70
2018-06-20T13:53:13.371Z,100772.23
2018-06-20T13:55:47.989Z,100777.27
2018-06-20T13:58:18.919Z,100772.37
2018-06-20T14:00:54.636Z,100766.39
2018-06-20T14:03:24.743Z,100763.80
2018-06-20T14:05:59.194Z,100758.48
2018-06-20T14:08:27.961Z,100757.92
2018-06-20T14:11:08.085Z,100754.92
2018-06-20T14:13:36.546Z,100751.78
2018-06-20T14:16:06.078Z,100746.23
2018-06-20T14:18:34.585Z,100748.72
2018-06-20T14:21:09.289Z,100746.11
2018-06-20T14:23:42.309Z,100746.77
2018-06-20T14:26:11.141Z,100744.16
2018-06-20T14:28:39.959Z,100745.56
2018-06-20T14:31:13.963Z,100738.23
2018-06-20T14:33:47.715Z,100738.27
2018-06-20T14:36:22.530Z,100729.25
2018-06-20T14:38:57.405Z,100724.70
2018-06-20T14:41:26.333Z,100724.44
2018-06-20T14:44:00.524Z,100719.52
2018-06-20T14:46:30.935Z,100720.41
2018-06-20T14:49:00.107Z,100713.28
2018-06-20T14:51:31.127Z,100709.66
2018-06-20T14:53:59.705Z,100710.59
2018-06-20T14:56:28.482Z,100716.52
2018-06-20T14:58:58.210Z,100710.78
2018-06-20T15:01:26.891Z,100709.69
2018-06-20T15:03:55.698Z,100701.64
2018-06-20T15:06:27.906Z,100713.48
2018-06-20T15:08:56.774Z,100703.41
2018-06-20T15:11:30.685Z,100699.20
2018-06-20T15:13:59.510Z,100699.41
2018-06-20T15:16:33.544Z,100702.55
2018-06-20T15:19:03.454Z,100693.30
2018-06-20T15:21:32.025Z,100699.17
2018-06-20T15:24:00.531Z,100686.81
2018-06-20T15:29:14.811Z,100680.30
2018-06-20T15:31:50.377Z,100675.89
2018-06-20T15:34:24.765Z,100673.95
2018-06-20T15:37:09.467Z,100672.47
2018-06-20T15:39:49.547Z,100663.92
2018-06-20T15:42:18.093Z,100666.10
2018-06-20T15:44:53.010Z,100664.34
2018-06-20T15:47:21.604Z,100659.97
2018-06-20T15:49:51.706Z,100654.00
2018-06-20T15:52:20.684Z,100655.77
2018-06-20T15:54:49.254Z,100655.23
2018-06-20T15:57:19.719Z,100651.88
2018-06-20T15:59:48.302Z,100645.80
2018-06-20T16:02:16.946Z,100637.88
2018-06-20T16:04:45.476Z,100644.45
2018-06-20T16:07:14.302Z,100638.93
2018-06-20T16:09:49.897Z,100646.02
2018-06-20T16:12:19.057Z,100636.69
2018-06-20T16:14:47.772Z,100636.61
2018-06-20T16:17:17.075Z,100635.50
2018-06-20T16:19:51.201Z,100636.14
2018-06-20T16:22:25.012Z,100630.39
2018-06-20T16:24:59.289Z,100638.83
2018-06-20T16:27:33.532Z,100629.14
2018-06-20T16:30:07.083Z,100627.62
2018-06-20T16:32:36.159Z,100631.23
2018-06-20T16:35:05.526Z,100625.75
2018-06-20T16:37:34.100Z,100623.90
2018-06-20T16:40:05.296Z,100621.44
2018-06-20T16:42:36.599Z,100618.60
2018-06-20T16:45:05.547Z,100618.56
2018-06-20T16:47:38.255Z,100619.61
2018-06-20T16:50:07.429Z,100612.36
2018-06-20T16:52:35.999Z,100611.36
2018-06-20T16:55:05.088Z,100609.41
2018-06-20T16:57:33.594Z,100604.45
2018-06-20T17:00:02.924Z,100605.98
2018-06-20T17:02:35.362Z,100606.90
2018-06-20T17:05:05.439Z,100608.41
2018-06-20T17:07:34.062Z,100607.61
2018-06-20T17:10:07.859Z,100604.39
2018-06-20T17:14:48.532Z,100605.95
2018-06-20T17:17:22.493Z,100601.11
2018-06-20T17:19:59.569Z,100604.34
2018-06-20T17:22:34.394Z,100599.58
2018-06-20T17:25:08.719Z,100602.74
2018-06-20T17:27:38.185Z,100605.36
2018-06-20T17:30:07.907Z,100596.36
2018-06-20T17:32:45.577Z,100595.41
2018-06-20T17:35:14.088Z,100596.39
2018-06-20T17:37:48.049Z,100596.39
2018-06-20T17:40:17.323Z,100598.14
2018-06-20T17:42:46.785Z,100591.66
2018-06-20T17:45:20.442Z,100585.64
2018-06-20T17:47:49.086Z,100583.81
2018-06-20T17:50:28.561Z,100582.61
2018-06-20T17:52:57.542Z,100589.20
2018-06-20T17:55:26.154Z,100585.59
2018-06-20T17:57:54.699Z,100584.16
2018-06-20T18:00:23.832Z,100584.05
2018-06-20T18:02:52.985Z,100578.20
2018-06-20T18:05:27.705Z,100576.31
2018-06-20T18:08:01.662Z,100579.59
2018-06-20T18:10:36.142Z,100577.66
2018-06-20T18:13:05.346Z,100576.66
2018-06-20T18:15:39.143Z,100570.75
2018-06-20T18:18:12.871Z,100579.20
2018-06-20T18:20:43.679Z,100574.28
2018-06-20T18:23:12.347Z,100576.05
2018-06-20T18:25:43.553Z,100574.53
2018-06-20T18:28:19.099Z,100574.09
2018-06-20T18:30:48.260Z,100569.77
2018-06-20T18:33:17.236Z,100574.48
2018-06-20T18:35:45.818Z,100577.97
2018-06-20T18:38:15.049Z,100575.63
2018-06-20T18:40:43.596Z,100580.39
2018-06-20T18:43:19.051Z,100579.97
2018-06-20T18:45:47.955Z,100582.16
2018-06-20T18:48:45.303Z,100577.75
2018-06-20T18:51:15.557Z,100577.81
2018-06-20T18:53:44.170Z,100573.02
2018-06-20T18:56:12.912Z,100574.61
2018-06-20T18:58:47.016Z,100567.98
2018-06-20T19:01:20.974Z,100570.13
2018-06-20T19:06:29.774Z,100569.89
2018-06-20T19:09:02.655Z,100567.08
2018-06-20T19:11:31.209Z,100563.89
2018-06-20T19:14:00.275Z,100566.33
2018-06-20T19:19:08.987Z,100570.38
2018-06-20T19:21:37.989Z,100571.31
2018-06-20T19:24:07.318Z,100575.38
2018-06-20T19:26:36.664Z,100576.53
2018-06-20T19:29:11.300Z,100575.48
2018-06-20T19:31:40.183Z,100577.39
2018-06-20T19:34:08.928Z,100573.52
2018-06-20T19:36:37.945Z,100575.70
2018-06-20T19:39:12.477Z,100580.88
2018-06-20T19:44:26.707Z,100583.15
2018-06-20T19:47:00.291Z,100581.80
2018-06-20T19:49:41.614Z,100580.71
2018-06-20T19:52:10.533Z,100585.71
2018-06-20T19:54:40.537Z,100590.08
2018-06-20T19:59:42.472Z,100593.32
2018-06-20T20:02:15.397Z,100584.13
2018-06-20T20:04:43.957Z,100587.11
2018-06-20T20:07:13.549Z,100594.51
2018-06-20T20:09:42.097Z,100590.06
2018-06-20T20:12:10.692Z,100592.23
2018-06-20T20:14:40.132Z,100593.78
2018-06-20T20:17:09.347Z,100597.59
2018-06-20T20:19:37.909Z,100595.73
2018-06-20T20:22:06.936Z,100596.24
2018-06-20T20:24:35.595Z,100596.75
2018-06-20T20:27:04.719Z,100592.59
2018-06-20T20:29:33.752Z,100592.27
2018-06-20T20:32:03.057Z,100596.33
2018-06-20T20:34:31.588Z,100591.42
2018-06-20T20:37:00.578Z,100589.97
2018-06-20T20:39:29.106Z,100593.19
2018-06-20T20:41:58.106Z,100587.64
2018-06-20T20:44:26.985Z,100591.41
2018-06-20T20:46:59.230Z,100594.70
2018-06-20T20:49:27.787Z,100593.86
2018-06-20T20:51:56.774Z,100588.78
2018-06-20T20:54:25.316Z,100593.47
2018-06-20T20:56:54.516Z,100597.06
2018-06-20T20:59:25.245Z,100595.28
2018-06-20T21:01:53.750Z,100593.80
2018-06-20T21:04:22.218Z,100598.44
2018-06-20T21:06:51.479Z,100598.84
2018-06-20T21:09:19.983Z,100597.73
2018-06-20T21:11:48.478Z,100595.75
2018-06-20T21:14:27.398Z,100595.44
2018-06-20T21:16:56.003Z,100591.77
2018-06-20T21:19:24.758Z,100584.56
2018-06-20T21:21:56.019Z,100585.61
2018-06-20T21:24:24.705Z,100586.19
2018-06-20T21:26:59.585Z,100581.16
2018-06-20T21:29:28.207Z,100583.93
2018-06-20T21:31:57.195Z,100582.27
2018-06-20T21:34:26.462Z,100575.58
2018-06-20T21:37:04.323Z,100576.70
2018-06-20T21:39:32.886Z,100571.87
2018-06-20T21:42:04.793Z,100567.03
2018-06-20T21:44:33.296Z,100569.50
2018-06-20T21:47:03.710Z,100574.50
2018-06-20T21:49:32.795Z,100570.00
2018-06-20T21:52:05.961Z,100571.72
2018-06-20T21:54:34.905Z,100572.63
2018-06-20T21:57:05.612Z,100568.13
2018-06-20T21:59:34.136Z,100568.19
2018-06-20T22:02:10.287Z,100571.41
2018-06-20T22:04:38.888Z,100566.91
2018-06-20T22:07:07.425Z,100562.71
2018-06-20T22:09:40.127Z,100565.48
2018-06-20T22:12:08.905Z,100561.45
2018-06-20T22:14:40.429Z,100563.67
2018-06-20T22:17:09.313Z,100559.17
2018-06-20T22:19:39.050Z,100555.69
2018-06-20T22:22:07.628Z,100554.73
2018-06-20T22:24:36.598Z,100556.14
2018-06-20T22:27:05.310Z,100552.95
2018-06-20T22:29:33.879Z,100558.92
2018-06-20T22:32:05.180Z,100558.27
2018-06-20T22:34:33.673Z,100560.58
2018-06-20T22:37:02.273Z,100554.44
2018-06-20T22:39:34.582Z,100551.50
2018-06-20T22:42:05.283Z,100559.31
2018-06-20T22:44:33.796Z,100555.17
2018-06-20T22:47:03.734Z,100553.87
2018-06-20T22:49:32.340Z,100551.91
2018-06-20T22:52:06.566Z,100547.02
2018-06-20T22:54:35.370Z,100549.41
2018-06-20T22:57:05.433Z,100549.07
2018-06-20T22:59:34.217Z,100548.08
2018-06-20T23:02:12.307Z,100548.92
2018-06-20T23:04:41.125Z,100544.73
2018-06-20T23:07:18.919Z,100539.38
2018-06-20T23:09:47.550Z,100548.17
2018-06-20T23:12:16.359Z,100547.06
2018-06-20T23:14:45.498Z,100548.27
2018-06-20T23:17:14.258Z,100542.91
2018-06-20T23:19:43.152Z,100543.14
2018-06-20T23:22:11.647Z,100535.41
2018-06-20T23:24:40.218Z,100540.15
2018-06-20T23:27:09.124Z,100529.41
2018-06-20T23:29:49.437Z,100528.26
2018-06-20T23:32:18.534Z,100529.49
2018-06-20T23:34:47.040Z,100518.25
2018-06-20T23:37:15.535Z,100517.48
2018-06-20T23:39:44.649Z,100516.98
2018-06-20T23:42:19.794Z,100512.33
2018-06-20T23:44:48.511Z,100515.21
2018-06-20T23:47:17.153Z,100515.40
2018-06-20T23:49:45.687Z,100513.55
2018-06-20T23:52:14.708Z,100515.78
2018-06-20T23:54:54.196Z,100513.12
2018-06-20T23:57:23.038Z,100518.42
2018-06-20T23:59:52.198Z,100521.50
